﻿ProjectID	SampleID	SampleType	TaxonomyID	UniqCodeType	UniqCode	SampleName	ScientificName	CommonName	CollectionYear	CollectionMonth	CollectionDay	SamplingTimeStartEnd	SamplingTimeAMPM	SamplingDuration	WeatherStartEnd	CollectionRegion	CollectionCountry	CollectionArea	CollectionLatitudeFrom	CollectionLatitudeTo	CollectionLongitudeFrom	CollectionLongitudeTo	Sex	TissueOrgan	TissueLipid	TissueMoist	Weight	WeightUnit	Length	LengthUnit	LengthType	GrowthStage	Age	Disease	TemperatureStartEnd	WaterTemperatureStartEnd	pH	DO	EC	EC_temp	Salinity	SS	WaterDepthM	TransparencyM	WaterColor	SedimentTemperatureStartEnd	SedimentDepthM	SedimentAppearance	SedimentColor	SedimentSurfaceColor	SedimentOdor	SedimentImpurities	SedimentMoistureOnSiteAnalysis	IgnitionLossOnSiteAnalysis	SoilDepthM	FlowRate	MeanPM10	MeanTotalSuspendedParticles	HumidityStartEnd	WindDirectionStartEnd	WindSpeedMSStartEnd	AmountOfCollectedAirStartEnd	Remarks	RegisterDate	UpdateDate
PRA000013	SAA000460	ST009	29158			St.1	"Mytilus galloprovincialis"	"Mediterranean mussel"	2008	6						Asia	Japan	"Osaka Bay"	34.6271		135.0531944																																											2016/11/2	2017/1/16
PRA000013	SAA000461	ST009	29158			St.2	"Mytilus galloprovincialis"	"Mediterranean mussel"	2008	6						Asia	Japan	"Osaka Bay"	34.6319		135.081																																											2016/11/2	2017/1/16
PRA000013	SAA000462	ST009	29158			St.3	"Mytilus galloprovincialis"	"Mediterranean mussel"	2008	6						Asia	Japan	"Osaka Bay"	34.64238889		135.1238528																																											2016/11/2	2017/1/16
PRA000013	SAA000463	ST009	29158			St.4	"Mytilus galloprovincialis"	"Mediterranean mussel"	2008	6						Asia	Japan	"Osaka Bay"	34.64121667		135.1339																																											2016/11/2	2017/1/16
PRA000013	SAA000464	ST009	29158			St.8	"Mytilus galloprovincialis"	"Mediterranean mussel"	2006	10						Asia	Japan	"Osaka Bay"	34.65835833		135.433525																																											2016/11/2	2017/1/16
PRA000013	SAA000465	ST009	29158			St.9	"Mytilus galloprovincialis"	"Mediterranean mussel"	2006	10						Asia	Japan	"Osaka Bay"	34.63659722		135.4119																																											2016/11/2	2017/1/16
PRA000013	SAA000466	ST009	29158			St.10	"Mytilus galloprovincialis"	"Mediterranean mussel"	2006	10						Asia	Japan	"Osaka Bay"	34.61972778		135.412675																																											2016/11/2	2017/1/16
PRA000013	SAA000467	ST009	29158			St.12	"Mytilus galloprovincialis"	"Mediterranean mussel"	2006	10						Asia	Japan	"Osaka Bay"	34.51168333		135.3818917																																											2016/11/2	2017/1/16
PRA000013	SAA000468	ST009	29158			St.13	"Mytilus galloprovincialis"	"Mediterranean mussel"	2006	10						Asia	Japan	"Osaka Bay"	34.50328611		135.3811694																																											2016/11/2	2017/1/16
PRA000013	SAA000469	ST009	29158			St.15	"Mytilus galloprovincialis"	"Mediterranean mussel"	2006	10						Asia	Japan	"Osaka Bay"	34.46794722		135.3597389																																											2016/11/2	2017/1/16
PRA000013	SAA000470	ST009	29159			St.5	"Crassostrea gigas"	"Pacific oyster"	2006	10						Asia	Japan	"Osaka Bay"	34.68		135.3855167																																											2016/11/2	2017/1/16
PRA000013	SAA000471	ST009	29159			St.6	"Crassostrea gigas"	"Pacific oyster"	2006	10						Asia	Japan	"Osaka Bay"	34.69585		135.3988833																																											2016/11/2	2017/1/16
PRA000013	SAA000472	ST009	29159			St.7	"Crassostrea gigas"	"Pacific oyster"	2006	10						Asia	Japan	"Osaka Bay"	34.6729		135.4031																																											2016/11/2	2017/1/16
PRA000013	SAA000473	ST009	29159			St.10	"Crassostrea gigas"	"Pacific oyster"	2006	10						Asia	Japan	"Osaka Bay"	34.61972778		135.412675																																											2016/11/2	2017/1/16
PRA000013	SAA000474	ST009	29159			St.11	"Crassostrea gigas"	"Pacific oyster"	2006	10						Asia	Japan	"Osaka Bay"	34.55468333		135.4440333																																											2016/11/2	2017/1/16
PRA000013	SAA000475	ST009	29159			St.13	"Crassostrea gigas"	"Pacific oyster"	2006	10						Asia	Japan	"Osaka Bay"	34.50328611		135.3811694																																											2016/11/2	2017/1/16
PRA000013	SAA000476	ST009	29159			St.14	"Crassostrea gigas"	"Pacific oyster"	2006	10						Asia	Japan	"Osaka Bay"	34.50398333		135.3797																																											2016/11/2	2017/1/16
PRA000013	SAA000477	ST009	29159			St.15	"Crassostrea gigas"	"Pacific oyster"	2006	10						Asia	Japan	"Osaka Bay"	34.46794722		135.3597389																																											2016/11/2	2017/1/16
PRA000013	SAA000478	ST009	29159			St.16	"Crassostrea gigas"	"Pacific oyster"	2006	10						Asia	Japan	"Osaka Bay"	34.42211111		135.3353333																																											2016/11/2	2017/1/16
PRA000013	SAA000479	ST009	29159			St.17	"Crassostrea gigas"	"Pacific oyster"	2008	10						Asia	Japan	"Osaka Bay"	34.35088056		135.2245278																																											2016/11/2	2017/1/16
PRA000013	SAA000480	ST009	29159			St.18	"Crassostrea gigas"	"Pacific oyster"	2008	10						Asia	Japan	"Osaka Bay"	34.33844444		135.1768333																																											2016/11/2	2017/1/16
PRA000013	SAA000481	ST009	29159			St.19	"Crassostrea gigas"	"Pacific oyster"	2008	10						Asia	Japan	"Osaka Bay"	34.27728333		135.0720833																																											2016/11/2	2017/1/16
PRA000097	SAA006282	ST015				Hokkaido_w3_2017	Water	"River water"	2017	11	10	2017-11-10T13:40			Cloudy	Asia	Japan	"Ishikarikako-kyo Bridge, Mouth of Riv. Ishikari (Ishikari City), Hokkaido"	43.22861111		141.3519444														8.8	6.8	6.3	9.2	37			12			"Greyish brown"																			2019/09/13	2019/09/13
PRA000097	SAA006283	ST015				Hokkaido_w2_2017	Water	"River water"	2017	10	16	2017-10-16T12:30			Fair	Asia	Japan	"Suzuran-ohashi Bridge, Riv. Tokachi (Obihiro City), Hokkaido"	42.94583333		143.1855556														13.2	10.9	7	9.1	13			6			Clear																			2019/09/13	2019/09/13
PRA000097	SAA006284	ST015				Hokkaido_w4_2017	Water	"River water"	2017	9	26	2017-09-26T09:30			Cloudy	Asia	Japan	"Onnnenai-ohashi Bridge, Riv. Teshio (BifukaTown), Hokkaido"	44.59138889		142.3063889														16.3	16.6	7.5	9.5	7.7			19			Clear																			2019/09/13	2019/09/13
PRA000097	SAA006285	ST014				Hokkaido_w7_2017	Water	"Sea water"	2017	9	11	2017-09-11T10:45			Fair	Asia	Japan	"Tomakomai Port, Hokkaido"	42.63138889		141.6288889														19.5	19.5	8	9.5				6		3.5	"Greenish blue"																			2019/9/13	2019/9/13
PRA000097	SAA006286	ST014				Hokkaido_w8_2017	Water	"Sea water"	2017	12	6	2017-12-06T13:10			Cloudy	Asia	Japan	"Muroran port, Hokkaido"	42.34305556		140.9708333														-1.4	5.3	8.1	13.8				9																						2019/9/13	2019/9/13
PRA000097	SAA006289	ST015				Iwate_w1_2017	Water	"River water"	2017	10	4	2017-10-04T10:20			Cloudy	Asia	Japan	"Riv. Toyosawa (Hanamaki City), Iwate"	39.38166667		141.1191667														15	14.2	7.2	11	7.1			1			"Light Greenish brown"																			2019/09/13	2019/09/13
PRA000097	SAA006293	ST015				Akita_w1_2017	Water	"River water"	2017	10	11	2017-10-11T12:58			Cloudy	Asia	Japan	"Akita Canal (Akita City), Akita"	39.75083333		140.0586111														17.6	18.1	6.7	8.6	202			3.1		2	"Dark Yellow green"																			2019/09/13	2019/09/13
PRA000097	SAA006294	ST015				Yamagata_w1-1_2017	Water	"River water"	2017	10	18	2017-10-18T09:30			Fair	Asia	Japan	"Mouth of Riv. Mogami, Yamagata"	38.88722222		139.8433333														17.2	14.3	7	9.8	17			2			"Light Yellow"																			2019/9/13	2019/9/13
PRA000097	SAA006304	ST015				Chiba_w1_2017	Water	"River water"	2017	10	11	2017-10-11T09:25			"Slightly cloudy"	Asia	Japan	"Asai-bashi Bridge, Riv. Yourou (Ichihara City), Chiba"	35.46722222		140.1155556														26.5	21.8	7.9	8.4				10			"Yellow green"																			2019/9/13	2019/9/13
PRA000097	SAA006305	ST015				Tokyo_w1_2017	Water	"River water"	2017	11	15	2017-11-15T10:35			Cloudy	Asia	Japan	"Mouth of Riv. Arakawa (Koto Ward), Tokyo"	35.64583333		139.8463889														15.2	14.4	7.8	8.8	1,500			19		1.3	"Grayish yellow green"																			2019/09/13	2019/09/13
PRA000097	SAA006306	ST015				Tokyo_w2_2017	Water	"River water"	2017	11	15	2017-11-15T12:55			Fair	Asia	Japan	"Mouth of Riv. Sumida (Minato Ward), Tokyo"	35.66		139.7705556														18.3	18.6	8.2	5.4	4,000			4		2.9	"Dark green"																			2019/09/13	2019/09/13
PRA000097	SAA006307	ST014				YokohamaCity_w3_2017	Water	"Sea water"	2017	11	6	2017-11-06T09:50			Fair	Asia	Japan	"Yokohama Port, Kanagawa"	35.45555556		139.6636111														19	16.7	8	6.9				7.8		12	Clear																			2019/9/13	2019/9/13
PRA000097	SAA006322	ST014				Aichi_w2-1_2017	Water	"Sea water"	2017	11	13	2017-11-13T12:35			Cloudy	Asia	Japan	"Nagoya Port, West of Shiomi Wharf, Aichi"	35.07111111		136.8691667														15.7	18.3	8.1	5.3	4,200			2		2.8	"Light Green"																			2019/09/13	2019/11/18
PRA000097	SAA006324	ST015				NagoyaCity_w1_2017	Water	"River water"	2017	10	18	2017-10-18T10:40			Fair	Asia	Japan	"Minatoshinbashi Bridge, Riv. Hori (Nagoya City), Aichi"	35.09805556		136.8925														20.8	21.7	7.6	1.6				5.5			"Grayish green"																			2019/9/13	2019/9/13
PRA000097	SAA006326	ST014				Mie_w1_2017	Water	"Sea water"	2017	10	24	2017-10-24T10:20			Cloudy	Asia	Japan	"Yokkaichi Port, Mie"	34.94944444		136.6530556														17	16	7.7	7.8	1,600			5		1.2	"Grayish green"																			2019/9/13	2019/9/13
PRA000097	SAA006332	ST015				Osaka_w1_2017	Water	"River water"	2017	11	7	2017-11-07T09:40			Fair	Asia	Japan	"Mouth of Riv. Yamato (Sakai City), Osaka"	34.60833333		135.4325														18.5	18.7	7.8	9.6				3		1.5	Clear																			2019/09/13	2019/09/13
PRA000097	SAA006335	ST014				Hyogo_w3_2017	Water	"Sea water"	2017	10	11	2017-10-11T10:27			Cloudy	Asia	Japan	"Offshore of Himeji, Hyogo"	34.76194444		134.6697222														25.4	25.5	8.2	7.2	4			5.8		5.1	"Greenish brown"																			2019/9/13	2019/9/13
PRA000097	SAA006340	ST014				Okayama_w2_2017	Water	"Sea water"	2017	10	31	2017-10-31T10:15			Fair	Asia	Japan	"Offshore of Mizushima, Okayama"	34.48055556		133.665														18.8	19.5	8	6.8	5,800			2		2.3	"Dark Green"																			2019/9/13	2019/9/13
PRA000097	SAA006342	ST014				Yamagachi_w1_2017	Water	"Sea water"	2017	10	5	2017-10-05T10:56			Fair	Asia	Japan	"Tokuyama Bay, Yamaguchi"	33.99361111		131.7505556														22	23	8.2	6.2				3.2		5.5	"Bluish green"																			2019/9/13	2019/9/13
PRA000097	SAA006347	ST014				Fukuoka_w2_2017	Water	"Sea water"	2017	10	24	2017-10-24T11:00			Fair	Asia	Japan	"Offshore of Omuta, Fukuoka"	33.03472222		130.4113889														21	20.4	8.1	6.8	4,100			10		1.7	"Light Yellow"																			2019/9/13	2019/9/13
PRA000097	SAA006348	ST015				Fukuoka_w1_2017	Water	"River water"	2017	10	30	2017-10-30T11:40			"Cloudy, Fair later"	Asia	Japan	"Kabura-bashi Bridge, Riv. Raizan (Itoshima City), Fukuoka"	33.565		130.1902778														18.3	17.5	7.3	7.8	26			12			"Light Yellow"																			2019/9/13	2019/9/13
PRA000097	SAA006349	ST014				KitakyushuCity_w1_2017	Water	"Sea water"	2017	10	17	2017-10-17T09:25			Cloudy	Asia	Japan	"Dokai Bay (Kitakyushu City), Fukuoka"	33.90388889		130.8158333														18.4	21.3	7.8	6	4,300			2		3	Clear																			2019/09/13	2019/09/13
PRA000097	SAA006417	ST029				Hokkaido_air1-1_2017	Air	"Outside air"	2017	10	25	2017-10-24T10:23/2017-10-25T10:30		"24h (Oct. 24_25)"	Fair/Fair	Asia	Japan	"Hokkaido Research Organization, Environmental and Geological Research Department, Institute of Environmental Sciences, Sapporo City, Hokkaido"	43.08138889		141.3333333														11.9/15.0																								45/47	WNW/ESE	1.0/3.5	"1.42 m^3 (1-Nitropyrene); 0.071 m^3 (Toluidine); 0.50 m^3 (Nitrobenzene); 0.99 m^3 (Methacrylic acid)"		2019/09/30	2019/11/11
PRA000097	SAA006418	ST029				Hokkaido_air1-2_2017	Air	"Outside air"	2017	10	26	2017-10-25T10:45/2017-10-26T10:35		"24h (Oct. 25_26)"	Fair/Fair	Asia	Japan	"Hokkaido Research Organization, Environmental and Geological Research Department, Institute of Environmental Sciences, Sapporo City, Hokkaido"	43.08138889		141.3333333														15.7/13.2																								45/49	E/NNW	4.6/6.4	"1.41 m^3 (1-Nitropyrene); 0.070 m^3 (Toluidine); 0.49 m^3 (Nitrobenzene); 0.99 m^3 (Methacrylic acid)"		2019/09/30	2019/11/11
PRA000097	SAA006419	ST029				Hokkaido_air1-3_2017	Air	"Outside air"	2017	10	27	2017-10-26R10:45/2017-10-27T10:40		"24h (Oct. 26_27)"	Fair/Fair	Asia	Japan	"Hokkaido Research Organization, Environmental and Geological Research Department, Institute of Environmental Sciences, Sapporo City, Hokkaido"	43.08138889		141.3333333														13.2/12.6																								49/47	NNW/NNW	6.4/2.4	"1.41 m^3 (1-Nitropyrene); 0.070 m^3 (Toluidine); 0.49 m^3 (Nitrobenzene); 0.99 m^3 (Methacrylic acid)"		2019/09/30	2019/11/11
PRA000097	SAA006420	ST029				SendaiCity_air1-1_2017	Air	"Outside air"	2017	10	26	2017-10-25T09:55/2017-10-26T09:55		"24h (Oct. 25_26)"	Cloudy/Fair	Asia	Japan	"Tsutsujigaoka Park, Sendai City, Miyagi"	38.26		140.8986111														11.4/15.9																								83/59	NNW/NNE	2.0/1.1	"1.44 m^3 (1-Nitropyrene); 0.50 m^3 (Nitrobenzene);"		2019/09/30	2019/11/11
PRA000097	SAA006421	ST029				SendaiCity_air1-2_2017	Air	"Outside air"	2017	10	27	2017-10-26T10:00/2017-10-27T10:00		"24h (Oct. 26_27)"	Fair/Fair	Asia	Japan	"Tsutsujigaoka Park, Sendai City, Miyagi"	38.26		140.8986111														15.9/15.0																								59/72	NNE/NNE	1.1/1.3	"1.44 m^3 (1-Nitropyrene); 0.50 m^3 (Nitrobenzene);"		2019/09/30	2019/11/11
PRA000097	SAA006422	ST029				SendaiCity_air1-3_2017	Air	"Outside air"	2017	10	28	2017-10-27T10:05/2017-10-28T10:05		"24h (Oct. 27_28)"	Fair/Cloudy	Asia	Japan	"Tsutsujigaoka Park, Sendai City, Miyagi"	38.26		140.8986111														15.0/14.5																								72/79	NNE/N	1.3/1.3	"1.44 m^3 (1-Nitropyrene); 0.50 m^3 (Nitrobenzene);"		2019/09/30	2019/11/11
PRA000097	SAA006423	ST029				Chiba_air1-1_2017	Air	"Outside air"	2017	11	7	2017-11-06T10:00/2017-11-07T09:45		"24h (Nov. 6_7)"	Fair/Fair	Asia	Japan	"Ichihara Iwasaki Nishi Air pollution monitoring station, Ichihara city, Chiba"	35.52666667		140.0680556														14.7/16.2																								64/63	WNW/WNW	1.4/1.3	"1.40 m^3 (1-Nitropyrene); 0.07 m^3 (Toluidine); 0.49 m^3 (Nitrobenzene); 0.98 m^3 (Methacrylic acid)"		2019/09/30	2019/11/11
PRA000097	SAA006424	ST029				Chiba_air1-2_2017	Air	"Outside air"	2017	11	8	2017-11-07T10:00/2017-11-08T09:46		"24h (Nov. 7_8)"	Fair/Rain	Asia	Japan	"Ichihara Iwasaki Nishi Air pollution monitoring station, Ichihara city, Chiba"	35.52666667		140.0680556														16.2/18.4																								63/76	WNW/SSW	1.3/6.6	"1.40 m^3 (1-Nitropyrene); 0.07 m^3 (Toluidine); 0.49 m^3 (Nitrobenzene); 0.98 m^3 (Methacrylic acid)"		2019/09/30	2019/11/11
PRA000097	SAA006425	ST029				Chiba_air1-3_2017	Air	"Outside air"	2017	11	9	2017-11-08T10:00/2017-11-09T09:45		"24h (Nov. 8_9)"	Rain/Fair	Asia	Japan	"Ichihara Iwasaki Nishi Air pollution monitoring station, Ichihara city, Chiba"	35.52666667		140.0680556														18.4/17.7																								76/43	SSW/N	6.6/9.5	"1.40 m^3 (1-Nitropyrene); 0.07 m^3 (Toluidine); 0.49 m^3 (Nitrobenzene); 0.98 m^3 (Methacrylic acid)"		2019/09/30	2019/11/11
PRA000097	SAA006426	ST029				Tokyo_air1-1_2017	Air	"Outside air"	2017	10	24	2017-10-23T10:12/2017-10-24T10:02		"24h (Oct. 23_24)"	Cloudy/Cloudy	Asia	Japan	"Tokyo Metropolitan Research Institute for Environmental Protection, Koto Ward, Tokyo"	35.66833333		139.8241667														20.6/16.2																								52/54	WNW/E	8.0/2.9	"1.41 m^3 (1-Nitropyrene); 0.49 m^3 (Nitrobenzene)"		2019/09/30	2019/11/11
PRA000097	SAA006427	ST029				Tokyo_air1-2_2017	Air	"Outside air"	2017	10	25	2017-10-24T10:10/2017-10-25T10:25		"24h (Oct. 24_25)"	Cloudy/Rain	Asia	Japan	"Tokyo Metropolitan Research Institute for Environmental Protection, Koto Ward, Tokyo"	35.66833333		139.8241667														16.4/12.4																								52/92	ESE/NNW	2.5/2.6	"1.40 m^3 (1-Nitropyrene); 0.49 m^3 (Nitrobenzene)"		2019/09/30	2019/11/11
PRA000097	SAA006428	ST029				Tokyo_air1-3_2017	Air	"Outside air"	2017	10	26	2017-10-25T10:06/2017-10-26T10:03		"24h (Oct. 25_26)"	Rain/Fair	Asia	Japan	"Tokyo Metropolitan Research Institute for Environmental Protection, Koto Ward, Tokyo"	35.66833333		139.8241667														12.6/17.6																								92/61	NNE/NNW	2.4/2.3	"1.41 m^3 (1-Nitropyrene); 0.49 m^3 (Nitrobenzene)"		2019/09/30	2019/11/11
PRA000097	SAA006429	ST029				Tokyo_air2-1_2017	Air	"Outside air"	2017	10	7	2017-10-06T09:50/2017-10-07T09:35		"24h (Oct. 6_7)"	Fair/Fair	Asia	Japan	"Ogasawara Chichijima, Ogasawara Village, Tokyo"	27.09361111		142.2161111														29.3/29.3																								79/81	ENE/ENE	4.3/3.1	"1.40 m^3 (1-Nitropyrene); 0.49 m^3 (Nitrobenzene)"		2019/09/30	2019/11/11
PRA000097	SAA006430	ST029				Tokyo_air2-2_2017	Air	"Outside air"	2017	10	8	2017-10-07T09:57/2017-10-08T09:44		"24h (Oct. 7_8)"	Fair/Fair	Asia	Japan	"Ogasawara Chichijima, Ogasawara Village, Tokyo"	27.09361111		142.2161111														29.1/29.5																								79/82	SE/ENE	3.9/4.2	"1.40 m^3 (1-Nitropyrene); 0.49 m^3 (Nitrobenzene)"		2019/09/30	2019/11/11
PRA000097	SAA006431	ST029				Tokyo_air2-3_2017	Air	"Outside air"	2017	10	9	2017-10-08T10:00/2017-10-09T09:50		"24h (Oct. 8_9)"	Cloudy/Cloudy	Asia	Japan	"Ogasawara Chichijima, Ogasawara Village, Tokyo"	27.09361111		142.2161111														29.0/29.2																								83/85	ENE/ENE	3.2/3.9	"1.41 m^3 (1-Nitropyrene); 0.49 m^3 (Nitrobenzene)"		2019/09/30	2019/11/11
PRA000097	SAA006432	ST029				Kanagawa_air1-1_2017	Air	"Outside air"	2017	11	28	2017-11-27T10:00/2017-11-28T10:05		"24h (Nov. 27_28)"	Fair/Cloudy	Asia	Japan	"Kanagawa Environmental Research Center, Hiratsuka City, Kanagawa"	35.3475		139.3513889														13.6/12.9																								47/70	NNE/NNE	4.1/3.6	"1.42 m^3 (1-Nitropyrene); 0.071 m^3 (Toluidine); 0.50 m^3 (Nitrobenzene); 0.99 m^3 (Methacrylic acid)"		2019/09/30	2019/11/11
PRA000097	SAA006433	ST029				Kanagawa_air1-2_2017	Air	"Outside air"	2017	11	29	2017-11-28T10:12/2017-11-29T10:15		"24h (Nov. 28_29)"	Cloudy/Fair	Asia	Japan	"Kanagawa Environmental Research Center, Hiratsuka City, Kanagawa"	35.3475		139.3513889														12.9/14.3																								70/60	NNE/ENE	3.6/0.9	"1.42 m^3 (1-Nitropyrene); 0.070 m^3 (Toluidine); 0.50 m^3 (Nitrobenzene); 0.99 m^3 (Methacrylic acid)"		2019/09/30	2019/11/11
PRA000097	SAA006434	ST029				Kanagawa_air1-3_2017	Air	"Outside air"	2017	11	30	2017-11-29T10:20/2017-11-30T10:24		"24h (Nov. 29_30)"	Fair/Cloudy	Asia	Japan	"Kanagawa Environmental Research Center, Hiratsuka City, Kanagawa"	35.3475		139.3513889														14.3/13.6																								60/61	ENE/NNE	0.9/3.4	"1.42 m^3 (1-Nitropyrene); 0.071 m^3 (Toluidine); 0.50 m^3 (Nitrobenzene); 0.99 m^3 (Methacrylic acid)"		2019/09/30	2019/11/11
PRA000097	SAA006435	ST029				Ishikawa_air1-1_2017	Air	"Outside air"	2017	11	28	2017-11-27T09:53/2017-11-28T09:53		"24h (Nov. 27_28)"	Cloudy/Fair	Asia	Japan	"Ishikawa Prefectural Institute of Public Health and Environmental Science, Kanazawa City, Ishikawa"	36.52722222		136.7055556														9.9/10.2																								69/64	NNE/	2.4/NA	"1.42 m^3 (1-Nitropyrene)"		2019/09/30	2019/11/11
PRA000097	SAA006436	ST029				Ishikawa_air1-2_2017	Air	"Outside air"	2017	11	29	2017-11-28T10:06/2017-11-29T10:06		"24h (Nov. 28_29)"	Fair/Rain	Asia	Japan	"Ishikawa Prefectural Institute of Public Health and Environmental Science, Kanazawa City, Ishikawa"	36.52722222		136.7055556														10.2/12.6																								64/96	/NW	NA/1.0	"1.42 m^3 (1-Nitropyrene)"		2019/09/30	2019/11/11
PRA000097	SAA006437	ST029				Ishikawa_air1-3_2017	Air	"Outside air"	2017	11	30	2017-11-29T10:12/2017-11-30T10:12		"24h (Nov. 29_30)"	Rain/Cloudy	Asia	Japan	"Ishikawa Prefectural Institute of Public Health and Environmental Science, Kanazawa City, Ishikawa"	36.52722222		136.7055556														12.6/11.3																								96/70	NW/NE	1.0/1.8	"1.42 m^3 (1-Nitropyrene)"		2019/09/30	2019/11/11
PRA000097	SAA006438	ST029				Nagano_air1-1_2017	Air	"Outside air"	2017	11	7	2017-11-06T10:00/2017-11-07T10:00		"24h (Nov. 6_7)"	Fair/Fair	Asia	Japan	"Nagano Environmental Conservation Research Institute, Nagano City, Nagano"	36.63555556		138.1786111														9.9/11.1																								64/64	SW/SW	3.2/2.3	"1.44 m^3 (1-Nitropyrene); 0.072 m^3 (Toluidine）; 1.0 m^3 (Methacrylic acid）"		2019/09/30	2019/11/11
PRA000097	SAA006439	ST029				Nagano_air1-2_2017	Air	"Outside air"	2017	11	8	2017-11-07T10:12/2017-11-08T10:12		"24h (Nov. 7_8)"	Fair/Cloudy	Asia	Japan	"Nagano Environmental Conservation Research Institute, Nagano City, Nagano"	36.63555556		138.1786111														11.1/11.1																								64/74	SW/WSW	2.3/1.3	"1.44 m^3 (1-Nitropyrene); 0.072 m^3 (Toluidine）; 1.0 m^3 (Methacrylic acid）"		2019/09/30	2019/11/11
PRA000097	SAA006440	ST029				Nagano_air1-3_2017	Air	"Outside air"	2017	11	9	2017-11-08T10:23/2017-11-09T10:23		"24h (Nov. 8_9)"	Cloudy/Cloudy	Asia	Japan	"Nagano Environmental Conservation Research Institute, Nagano City, Nagano"	36.63555556		138.1786111														11.1/9.3																								74/80	WSW/ENE	1.3/4.1	"1.44 m^3 (1-Nitropyrene); 0.072 m^3 (Toluidine）; 1.0 m^3 (Methacrylic acid）"		2019/09/30	2019/11/11
PRA000097	SAA006441	ST029				NagoyaCity_air1-1_2017	Air	"Outside air"	2017	11	15	2017-11-14T10:43/2017-11-15T10:43		"24h (Nov. 14_15)"	Rain/Fair	Asia	Japan	"Chikusa-ku Heiwakoen Park, Nagoya City, Aichi"	35.17055556		136.9788889														12.7/14.2																								92/67	NNW/NNW	2.3/2.1	"1.44 m^3 (1-Nitropyrene); 0.07 m^3 (Toluidine）"		2019/09/30	2019/11/11
PRA000097	SAA006442	ST029				NagoyaCity_air1-2_2017	Air	"Outside air"	2017	11	16	2017-11-15T10:50/2017-11-16T10:50		"24h (Nov. 15_16)"	Fair/Cloudy	Asia	Japan	"Chikusa-ku Heiwakoen Park, Nagoya City, Aichi"	35.17055556		136.9788889														14.2/9.8																								67/62	NNW/NW	2.1/4.6	"1.44 m^3 (1-Nitropyrene); 0.07 m^3 (Toluidine）"		2019/09/30	2019/11/11
PRA000097	SAA006443	ST029				NagoyaCity_air1-3_2017	Air	"Outside air"	2017	11	17	2017-11-16T10:56/2017-11-17T10:56		"24h (Nov. 16_17)"	Cloudy/Fair	Asia	Japan	"Chikusa-ku Heiwakoen Park, Nagoya City, Aichi"	35.17055556		136.9788889														10.0/11.5																								60/52	NW/NW	4.6/2.5	"1.44 m^3 (1-Nitropyrene); 0.07 m^3 (Toluidine）"		2019/09/30	2019/11/11
PRA000097	SAA006444	ST029				KyotoCity_air1-1_2017	Air	"Outside air"	2017	11	14	2017-11-13T10:10/2017-11-14T10:10		"24h (Nov. 13_14)"	Fair/Rain	Asia	Japan	"Kyoto Institute of Public Health and Environmental Science, Kyoto City, Kyoto"	34.99833333		135.7341667														11.2/11.9																								62/95	ESE/CALM	0.7/0.0	"1.42 m^3 (1-Nitropyrene); 0.07 m^3 (Toluidine）; 0.99 m^3 (Methacrylic acid）"		2019/09/30	2019/11/11
PRA000097	SAA006445	ST029				KyotoCity_air1-2_2017	Air	"Outside air"	2017	11	15	2017-11-14T10:20/2017-11-15T10:20		"24h (Nov. 14_15)"	Rain/Fair	Asia	Japan	"Kyoto Institute of Public Health and Environmental Science, Kyoto City, Kyoto"	34.99833333		135.7341667														12.1/13.1																								94/70	CALM/S	0.0/2.1	"1.42 m^3 (1-Nitropyrene); 0.07 m^3 (Toluidine）; 0.99 m^3 (Methacrylic acid）"		2019/09/30	2019/11/11
PRA000097	SAA006446	ST029				KyotoCity_air1-3_2017	Air	"Outside air"	2017	11	16	2017-11-15T10:25/2017-11-16T10:25		"24h (Nov. 15_16)"	Fair/Fair	Asia	Japan	"Kyoto Institute of Public Health and Environmental Science, Kyoto City, Kyoto"	34.99833333		135.7341667														13.1/10.7																								70/47	S/W	2.1/3.5	"1.42 m^3 (1-Nitropyrene); 0.07 m^3 (Toluidine）; 0.99 m^3 (Methacrylic acid）"		2019/09/30	2019/11/11
PRA000097	SAA006447	ST029				Yamaguchi_air1-1_2017	Air	"Outside air"	2017	11	28	2017-11-27T09:59/2017-11-28T09:59		"24h (Nov. 27_28)"	Fair/Fair	Asia	Japan	"Yamaguchi Prefectural Institute of Public Health and Environment, Yamaguchi City, Yamaguchi"	34.15277778		131.4333333														11.0/11.3																								96/79	E/E	0.3/0.2	"1.42 m^3 (1-Nitropyrene); 0.07 m^3 (Toluidine）; 0.99 m^3 （Methacrylic acid）"		2019/09/30	2019/11/11
PRA000097	SAA006448	ST029				Yamaguchi_air1-2_2017	Air	"Outside air"	2017	11	29	2017-11-28T10:04/2017-11-29T10:04		"24h (Nov. 28_29)"	Fair/Rain	Asia	Japan	"Yamaguchi Prefectural Institute of Public Health and Environment, Yamaguchi City, Yamaguchi"	34.15277778		131.4333333														11.3/14.2																								79/99	E/W	0.2/0.7	"1.42 m^3 (1-Nitropyrene); 0.07 m^3 (Toluidine）; 0.99 m^3 (Methacrylic acid）"		2019/09/30	2019/11/11
PRA000097	SAA006449	ST029				Yamaguchi_air1-3_2017	Air	"Outside air"	2017	11	30	2017-11-29T10:07/2017-11-30T10:07		"24h (Nov. 29_30)"	Rain/Cloudy	Asia	Japan	"Yamaguchi Prefectural Institute of Public Health and Environment, Yamaguchi City, Yamaguchi"	34.15277778		131.4333333														14.2/12.1																								99/99	W/SSW	0.7/0.2	"1.42 m^3 (1-Nitropyrene); 0.07 m^3 (Toluidine）; 0.99 m^3 （Methacrylic acid）"		2019/09/30	2019/11/11
PRA000097	SAA006450	ST029				Kagawa_air1-1_2017	Air	"Outside air"	2017	10	12	2017-10-11T10:14/2017-10-12T10:13		"24h (Oct. 11_12)"	Fair/Cloudy	Asia	Japan	"Kagawa Pref. Synthesis Swimming Pool, Takamatsu City, Kagawa"	34.30861111		133.9802778														26.1/22.0																								69/85	NNW/ESE	2.9/2.2	"1.42 m^3 (1-Nitropyrene); 0.99 m^3 （Methacrylic acid）"		2019/09/30	2019/11/11
PRA000097	SAA006451	ST029				Kagawa_air1-2_2017	Air	"Outside air"	2017	10	13	2017-10-12T10:23/2017-10-13T10:22		"24h (Oct. 12_13)"	Cloudy/Cloudy	Asia	Japan	"Kagawa Pref. Synthesis Swimming Pool, Takamatsu City, Kagawa"	34.30861111		133.9802778														22.2/18.3																								86/81	ESE/ESE	2.4/2.1	"1.42 m^3 (1-Nitropyrene); 0.99 m^3 （Methacrylic acid）"		2019/09/30	2019/11/11
PRA000097	SAA006452	ST029				Kagawa_air1-3_2017	Air	"Outside air"	2017	10	14	2017-10-13T10:35/2017-10-14T10:34		"24h (Oct. 13_14)"	Cloudy/Cloudy	Asia	Japan	"Kagawa Pref. Synthesis Swimming Pool, Takamatsu City, Kagawa"	34.30861111		133.9802778														18.3/20.9																								80/76	ESE/WNW	2.5/1.7	"1.42 m^3 (1-Nitropyrene); 0.99 m^3 （Methacrylic acid）"		2019/09/30	2019/11/11
PRA000097	SAA006453	ST029				Oita_air1-1_2017	Air	"Outside air"	2017	10	31	2017-10-30T10:16/2017-10-31T10:16		"24h (Oct. 30_31)"	Fair/Fair	Asia	Japan	"Misa Elementary School, Oita City, Oita"	33.25305556		131.6813889														17.1/26.1																								41/17	N/SSW	2.4/0.8	"1.42 m^3 (1-Nitropyrene); 0.07 m^3 (Toluidine）; 0.99 m^3 （Methacrylic acid）"		2019/09/30	2019/11/11
PRA000097	SAA006454	ST029				Oita_air1-2_2017	Air	"Outside air"	2017	11	1	2017-10-31T10:31/2017-11-01T10:31		"24h (Oct. 31_Nov. 1)"	Fair/Fair	Asia	Japan	"Misa Elementary School, Oita City, Oita"	33.25305556		131.6813889														25.7/29.6																								16/16	SSW/CALM	0.8/0.4	"1.42 m^3 (1-Nitropyrene); 0.07 m^3 (Toluidine）; 0.99 m^3 （Methacrylic acid）"		2019/09/30	2019/11/11
PRA000097	SAA006455	ST029				Oita_air1-3_2017	Air	"Outside air"	2017	11	2	2017-11-01T10:36/2017-11-02T10:37		"24h (Nov. 1_2)"	Fair/Fair	Asia	Japan	"Misa Elementary School, Oita City, Oita"	33.25305556		131.6813889														29.2/29.0																								18/29	CALM/SSE	0.4/1.5	"1.42 m^3 (1-Nitropyrene); 0.07 m^3 (Toluidine）; 0.99 m^3 （Methacrylic acid）"		2019/09/30	2019/11/11
PRA000113	SAA007828	ST035				TY-W1	Air	"Dust (working place of ELV household)"	2013	1						Asia	Vietnam	"ELV (end-of-life-vehicle) recycling site, Thuyen village, Bac Giang province"	21.276038	21.282696	106.230231	106.236495																																									"ELV household 1; ELV-related activities: operated in the household backyards and semi-open facilities reinforced by steel frames and corrugated sheets; No clear boundary between workplaces and living areas in ELV workshops."	2021/1/27	2021/1/27
PRA000113	SAA007829	ST035				TY-W2	Air	"Dust (working place of ELV household)"	2013	1						Asia	Vietnam	"ELV (end-of-life-vehicle) recycling site, Thuyen village, Bac Giang province"	21.276038	21.282696	106.230231	106.236495																																									"ELV household 2; ELV-related activities: operated in the household backyards and semi-open facilities reinforced by steel frames and corrugated sheets; No clear boundary between workplaces and living areas in ELV workshops."	2021/1/27	2021/1/27
PRA000113	SAA007830	ST035				TY-W3	Air	"Dust (working place of ELV household)"	2013	1						Asia	Vietnam	"ELV (end-of-life-vehicle) recycling site, Thuyen village, Bac Giang province"	21.276038	21.282696	106.230231	106.236495																																									"ELV household 3; ELV-related activities: operated in the household backyards and semi-open facilities reinforced by steel frames and corrugated sheets; No clear boundary between workplaces and living areas in ELV workshops."	2021/1/27	2021/1/27
PRA000113	SAA007831	ST035				TY-L1	Air	"Dust (living area of ELV household)"	2013	1						Asia	Vietnam	"ELV (end-of-life-vehicle) recycling site, Thuyen village, Bac Giang province"	21.276038	21.282696	106.230231	106.236495																																									"ELV household 1; ELV-related activities: operated in the household backyards and semi-open facilities reinforced by steel frames and corrugated sheets; No clear boundary between workplaces and living areas in ELV workshops."	2021/1/27	2021/1/27
PRA000113	SAA007832	ST035				TY-L2	Air	"Dust (living area of ELV household)"	2013	1						Asia	Vietnam	"ELV (end-of-life-vehicle) recycling site, Thuyen village, Bac Giang province"	21.276038	21.282696	106.230231	106.236495																																									"ELV household 2; ELV-related activities: operated in the household backyards and semi-open facilities reinforced by steel frames and corrugated sheets; No clear boundary between workplaces and living areas in ELV workshops."	2021/1/27	2021/1/27
PRA000113	SAA007833	ST035				TY-L3	Air	"Dust (living area of ELV household)"	2013	1						Asia	Vietnam	"ELV (end-of-life-vehicle) recycling site, Thuyen village, Bac Giang province"	21.276038	21.282696	106.230231	106.236495																																									"ELV household 3; ELV-related activities: operated in the household backyards and semi-open facilities reinforced by steel frames and corrugated sheets; No clear boundary between workplaces and living areas in ELV workshops."	2021/1/27	2021/1/27
PRA000113	SAA007834	ST035				HN-H1	Air	"House dust (settled dust)"	2016	9						Asia	Vietnam	Hanoi	20.995249	21.049966	105.797843	105.876297																																									"Urban area; Manually collected by sweeping the floor and furniture surface using non-plastic brooms"	2021/1/27	2021/1/27
PRA000113	SAA007835	ST035				HN-H2	Air	"House dust (settled dust)"	2016	9						Asia	Vietnam	Hanoi	20.995249	21.049966	105.797843	105.876297																																									"Urban area; Manually collected by sweeping the floor and furniture surface using non-plastic brooms"	2021/1/27	2021/1/27
PRA000113	SAA007836	ST035				HN-H3	Air	"House dust (settled dust)"	2016	9						Asia	Vietnam	Hanoi	20.995249	21.049966	105.797843	105.876297																																									"Urban area; Manually collected by sweeping the floor and furniture surface using non-plastic brooms"	2021/1/27	2021/1/27
